Hauptseite
METAR-TAF:

METAR-TAF

Flughäfen :

Terrance B. Lettsome International Airport

Tortola, Britische Jungferninseln

Breite: 18-27N, Länge: 064-32W, Höhe: 4 m

Beobachtung

Neuester Wetterbericht von vor 4 Stunden und 53 Minuten, um 02:00 UTC
Wind 6 kt aus Ost
Temperatur 25°C
Luftfeuchtigkeit 83%
Luftdruck 1018 hPa
Sichtweite: 16.1 km
Leicht bewölkt in der Höhe von 1800 ft

METAR: TUPJ 280200Z 09006KT 10SM FEW018 25/22 A3005 RMK Q1017 VIS16KM

Zeit: 02:53 (06:53 UTC)

Prognose

Neuester Wetterbericht von vor 7 Stunden und 53 Minuten, um 23:00 UTC
Gültige Prognose vom 28 um 00 UTC bis 28 um 24 UTC
Wind 10 kt aus Ost/Nordost
Sichtweite 10 km oder mehr
Aufgelockert bewölkt in der Höhe von 2000 ft

TAF: TUPJ 272300Z 2800/2824 07010KT 9999 SCT020

Wetterbeobachtungen und Prognosen von mehr als 4000 Flughäfen (METAR und TAF Bericht).

Die verfügbaren Stationen werden durch gelbe und rote Markierungen auf der Karte dargestellt.

Führen Sie die Maus auf sie, um den Namen der Station zu sehen.

Darauf klicken, um die Beobachtung von Wetterbeobachtungen und Prognosen zu sehen.

Um die Karte zu ändern : klicken Sie auf den grünen Tasten mit einem schwarzen Kreuz Zum Vergrößern, auf den grünen Button mit einem Gedankenstrich zu verkleinern, oder auf die grünen Pfeile für benachbarte Karten.


METAR-TAF: